createdAt,value
2022-12-16T00:01:27.425Z,-10.45
2022-12-16T00:03:56.710Z,-10.47
2022-12-16T00:06:26.690Z,-10.55
2022-12-16T00:08:53.710Z,-10.57
2022-12-16T00:11:21.500Z,-10.56
2022-12-16T00:13:48.316Z,-10.63
2022-12-16T00:16:17.745Z,-10.65
2022-12-16T00:18:45.811Z,-10.64
2022-12-16T00:21:13.239Z,-10.69
2022-12-16T00:23:41.832Z,-10.67
2022-12-16T00:26:09.780Z,-10.71
2022-12-16T00:28:36.952Z,-10.73
2022-12-16T00:31:04.242Z,-10.74
2022-12-16T00:33:31.590Z,-10.76
2022-12-16T00:35:58.861Z,-10.79
2022-12-16T00:38:26.651Z,-10.79
2022-12-16T00:40:53.459Z,-10.77
2022-12-16T00:43:20.432Z,-10.76
2022-12-16T00:45:47.915Z,-10.80
2022-12-16T00:48:14.996Z,-10.87
2022-12-16T00:50:43.813Z,-10.87
2022-12-16T00:53:10.426Z,-10.86
2022-12-16T00:55:37.063Z,-10.88
2022-12-16T00:58:03.698Z,-10.90
2022-12-16T01:00:30.321Z,-10.89
2022-12-16T01:02:57.241Z,-10.91
2022-12-16T01:05:27.289Z,-10.91
2022-12-16T01:07:55.006Z,-10.92
2022-12-16T01:10:23.234Z,-10.92
2022-12-16T01:12:50.461Z,-10.93
2022-12-16T01:15:18.206Z,-10.94
2022-12-16T01:17:45.350Z,-10.93
2022-12-16T01:20:13.319Z,-10.96
2022-12-16T01:22:40.051Z,-10.93
2022-12-16T01:25:06.980Z,-10.95
2022-12-16T01:27:33.673Z,-10.93
2022-12-16T01:30:00.270Z,-10.92
2022-12-16T01:32:27.075Z,-10.92
2022-12-16T01:34:55.887Z,-10.93
2022-12-16T01:37:23.901Z,-10.94
2022-12-16T01:39:51.016Z,-11.00
2022-12-16T01:42:21.244Z,-11.00
2022-12-16T01:44:48.711Z,-10.99
2022-12-16T01:47:18.496Z,-10.98
2022-12-16T01:50:00.775Z,-10.97
2022-12-16T01:52:32.990Z,-11.05
2022-12-16T01:55:08.392Z,-11.11
2022-12-16T01:57:44.301Z,-11.12
2022-12-16T02:00:13.005Z,-11.14
2022-12-16T02:02:43.928Z,-11.16
2022-12-16T02:05:20.793Z,-11.15
2022-12-16T02:08:00.027Z,-11.11
2022-12-16T02:10:39.922Z,-11.09
2022-12-16T02:13:35.630Z,-11.12
2022-12-16T02:16:19.148Z,-11.24
2022-12-16T02:18:45.797Z,-11.23
2022-12-16T02:21:43.200Z,-11.24
2022-12-16T02:24:29.388Z,-11.25
2022-12-16T02:27:11.177Z,-11.30
2022-12-16T02:30:02.292Z,-11.27
2022-12-16T02:32:28.850Z,-11.26
2022-12-16T02:35:38.167Z,-11.24
2022-12-16T02:38:21.809Z,-11.27
2022-12-16T02:41:08.618Z,-11.30
2022-12-16T02:44:02.473Z,-11.36
2022-12-16T02:46:33.113Z,-11.40
2022-12-16T02:49:08.198Z,-11.38
2022-12-16T02:51:38.109Z,-11.36
2022-12-16T02:54:08.219Z,-11.40
2022-12-16T02:56:58.025Z,-11.38
2022-12-16T02:59:33.995Z,-11.37
2022-12-16T03:02:26.975Z,-11.37
2022-12-16T03:05:12.389Z,-11.38
2022-12-16T03:07:41.452Z,-11.34
2022-12-16T03:10:10.284Z,-11.36
2022-12-16T03:12:40.453Z,-11.45
2022-12-16T03:15:08.329Z,-11.51
2022-12-16T03:17:37.563Z,-11.57
2022-12-16T03:20:15.561Z,-11.64
2022-12-16T03:22:46.163Z,-11.63
2022-12-16T03:25:13.653Z,-11.57
2022-12-16T03:27:46.281Z,-11.58
2022-12-16T03:30:28.765Z,-11.58
2022-12-16T03:33:08.472Z,-11.69
2022-12-16T03:35:39.363Z,-11.67
2022-12-16T03:38:10.579Z,-11.59
2022-12-16T03:40:41.263Z,-11.62
2022-12-16T03:43:10.876Z,-11.56
2022-12-16T03:45:42.739Z,-11.57
2022-12-16T03:48:11.424Z,-11.55
2022-12-16T03:50:39.488Z,-11.52
2022-12-16T03:53:07.474Z,-11.49
2022-12-16T03:55:34.158Z,-11.49
2022-12-16T03:58:00.838Z,-11.49
2022-12-16T04:00:27.535Z,-11.50
2022-12-16T04:02:54.444Z,-11.53
2022-12-16T04:05:21.693Z,-11.58
2022-12-16T04:07:48.361Z,-11.53
2022-12-16T04:10:15.058Z,-11.54
2022-12-16T04:13:00.403Z,-11.57
2022-12-16T04:15:46.251Z,-11.57
2022-12-16T04:18:37.857Z,-11.58
2022-12-16T04:21:23.792Z,-11.59
2022-12-16T04:24:13.532Z,-11.60
2022-12-16T04:26:58.696Z,-11.60
2022-12-16T04:29:25.373Z,-11.66
2022-12-16T04:31:52.899Z,-11.69
2022-12-16T04:34:27.018Z,-11.70
2022-12-16T04:37:14.194Z,-11.70
2022-12-16T04:39:59.208Z,-11.68
2022-12-16T04:42:44.509Z,-11.63
2022-12-16T04:45:29.741Z,-11.55
2022-12-16T04:48:14.724Z,-11.47
2022-12-16T04:51:00.193Z,-11.43
2022-12-16T04:53:45.456Z,-11.30
2022-12-16T04:56:31.235Z,-11.20
2022-12-16T04:59:16.628Z,-11.17
2022-12-16T05:02:01.712Z,-11.13
2022-12-16T05:04:47.084Z,-10.98
2022-12-16T05:07:37.888Z,-10.84
2022-12-16T05:10:24.613Z,-10.79
2022-12-16T05:13:13.237Z,-10.72
2022-12-16T05:15:59.247Z,-10.61
2022-12-16T05:18:44.251Z,-10.52
2022-12-16T05:21:29.285Z,-10.40
2022-12-16T05:24:14.360Z,-10.36
2022-12-16T05:26:59.507Z,-10.35
2022-12-16T05:29:44.929Z,-10.21
2022-12-16T05:32:30.383Z,-10.16
2022-12-16T05:35:15.765Z,-10.09
2022-12-16T05:38:00.936Z,-9.99
2022-12-16T05:40:46.398Z,-9.94
2022-12-16T05:43:32.094Z,-9.86
2022-12-16T05:46:17.263Z,-9.82
2022-12-16T05:49:02.448Z,-9.71
2022-12-16T05:51:47.730Z,-9.65
2022-12-16T05:54:33.385Z,-9.56
2022-12-16T05:57:18.870Z,-9.51
2022-12-16T06:00:24.316Z,-9.46
2022-12-16T06:03:09.495Z,-9.36
2022-12-16T06:05:54.843Z,-9.31
2022-12-16T06:08:39.990Z,-9.24
2022-12-16T06:11:25.469Z,-9.20
2022-12-16T06:14:10.731Z,-9.13
2022-12-16T06:16:56.176Z,-9.04
2022-12-16T06:19:41.510Z,-9.05
2022-12-16T06:22:26.976Z,-9.02
2022-12-16T06:25:12.146Z,-8.97
2022-12-16T06:27:57.524Z,-8.92
2022-12-16T06:30:42.714Z,-8.84
2022-12-16T06:33:27.989Z,-8.74
2022-12-16T06:36:13.069Z,-8.67
2022-12-16T06:38:58.511Z,-8.61
2022-12-16T06:41:44.038Z,-8.56
2022-12-16T06:44:29.456Z,-8.53
2022-12-16T06:47:14.863Z,-8.48
2022-12-16T06:49:59.798Z,-8.49
2022-12-16T06:52:45.178Z,-8.45
2022-12-16T06:55:30.255Z,-8.39
2022-12-16T06:58:19.859Z,-8.35
2022-12-16T07:01:05.200Z,-8.31
2022-12-16T07:03:50.699Z,-8.24
2022-12-16T07:06:35.859Z,-8.18
2022-12-16T07:09:20.967Z,-8.10
2022-12-16T07:12:06.049Z,-8.11
2022-12-16T07:14:51.394Z,-8.19
2022-12-16T07:17:36.576Z,-8.08
2022-12-16T07:20:22.287Z,-8.02
2022-12-16T07:23:13.379Z,-7.92
2022-12-16T07:26:04.473Z,-7.83
2022-12-16T07:28:49.582Z,-7.76
2022-12-16T07:31:34.806Z,-7.78
2022-12-16T07:34:19.995Z,-7.71
2022-12-16T07:37:05.511Z,-7.64
2022-12-16T07:39:54.767Z,-7.59
2022-12-16T07:42:40.626Z,-7.53
2022-12-16T07:45:26.498Z,-7.48
2022-12-16T07:48:11.780Z,-7.45
2022-12-16T07:50:57.287Z,-7.39
2022-12-16T07:53:42.633Z,-7.38
2022-12-16T07:56:28.701Z,-7.31
2022-12-16T07:59:14.539Z,-7.24
2022-12-16T08:02:00.278Z,-7.18
2022-12-16T08:04:45.921Z,-7.08
2022-12-16T08:07:31.120Z,-7.00
2022-12-16T08:10:16.723Z,-6.89
2022-12-16T08:13:02.208Z,-6.77
2022-12-16T08:15:57.962Z,-6.70
2022-12-16T08:18:43.334Z,-6.62
2022-12-16T08:21:28.508Z,-6.51
2022-12-16T08:24:13.876Z,-6.42
2022-12-16T08:26:58.967Z,-6.34
2022-12-16T08:29:45.409Z,-6.25
2022-12-16T08:32:32.136Z,-6.17
2022-12-16T08:35:17.209Z,-6.10
2022-12-16T08:38:02.540Z,-6.09
2022-12-16T08:40:47.861Z,-6.00
2022-12-16T08:43:33.508Z,-5.87
2022-12-16T08:46:19.505Z,-5.77
2022-12-16T08:49:04.876Z,-5.65
2022-12-16T08:51:50.188Z,-5.64
2022-12-16T08:54:36.068Z,-5.54
2022-12-16T08:57:21.797Z,-5.46
2022-12-16T09:00:07.134Z,-5.35
2022-12-16T09:02:52.684Z,-5.23
2022-12-16T09:05:38.132Z,-5.16
2022-12-16T09:08:23.859Z,-5.01
2022-12-16T09:11:09.097Z,-4.91
2022-12-16T09:13:54.470Z,-4.78
2022-12-16T09:16:40.191Z,-4.70
2022-12-16T09:19:25.816Z,-4.62
2022-12-16T09:22:11.125Z,-4.58
2022-12-16T09:24:56.397Z,-4.54
2022-12-16T09:27:41.419Z,-4.45
2022-12-16T09:30:27.646Z,-4.53
2022-12-16T09:33:12.851Z,-4.45
2022-12-16T09:35:58.242Z,-4.39
2022-12-16T09:38:43.452Z,-4.27
2022-12-16T09:41:56.241Z,-4.22
2022-12-16T09:44:50.607Z,-4.15
2022-12-16T09:48:03.604Z,-4.06
2022-12-16T09:50:50.404Z,-4.08
2022-12-16T09:53:39.586Z,-3.98
2022-12-16T09:56:34.795Z,-3.93
2022-12-16T09:59:29.245Z,-3.88
2022-12-16T10:02:14.682Z,-3.77
2022-12-16T10:05:00.224Z,-3.69
2022-12-16T10:07:50.331Z,-3.64
2022-12-16T10:10:41.200Z,-3.60
2022-12-16T10:13:51.613Z,-3.61
2022-12-16T10:17:07.498Z,-3.61
2022-12-16T10:20:38.266Z,-3.58
2022-12-16T10:23:44.777Z,-3.48
2022-12-16T10:26:42.511Z,-3.34
2022-12-16T10:29:46.033Z,-3.26
2022-12-16T10:32:56.562Z,-3.22
2022-12-16T10:35:46.708Z,-3.12
2022-12-16T10:38:39.324Z,-3.04
2022-12-16T10:41:26.032Z,-3.02
2022-12-16T10:44:13.920Z,-2.94
2022-12-16T10:46:59.253Z,-2.83
2022-12-16T10:49:46.481Z,-2.92
2022-12-16T10:52:33.532Z,-2.82
2022-12-16T10:55:48.995Z,-2.96
2022-12-16T10:58:56.259Z,-2.81
2022-12-16T11:01:47.202Z,-2.68
2022-12-16T11:04:55.733Z,-2.54
2022-12-16T11:07:57.937Z,-2.64
2022-12-16T11:10:46.235Z,-2.53
2022-12-16T11:13:44.111Z,-2.47
2022-12-16T11:16:36.188Z,-2.49
2022-12-16T11:19:22.130Z,-2.46
2022-12-16T11:22:08.253Z,-2.31
2022-12-16T11:24:53.962Z,-2.53
2022-12-16T11:27:45.430Z,-2.54
2022-12-16T11:30:30.969Z,-2.39
2022-12-16T11:33:28.846Z,-2.52
2022-12-16T11:36:23.919Z,-2.57
2022-12-16T11:39:10.749Z,-2.61
2022-12-16T11:42:06.269Z,-2.61
2022-12-16T11:45:05.180Z,-2.49
2022-12-16T11:48:06.954Z,-2.30
2022-12-16T11:50:56.651Z,-2.25
2022-12-16T11:53:50.841Z,-2.17
2022-12-16T11:56:41.478Z,-2.10
2022-12-16T11:59:58.383Z,-2.13
2022-12-16T12:02:55.850Z,-2.07
2022-12-16T12:05:54.491Z,-2.07
2022-12-16T12:09:03.421Z,-2.17
2022-12-16T12:12:00.484Z,-2.25
2022-12-16T12:15:02.118Z,-2.36
2022-12-16T12:18:13.717Z,-2.38
2022-12-16T12:21:13.540Z,-2.29
2022-12-16T12:24:17.667Z,-2.49
2022-12-16T12:27:25.459Z,-2.48
2022-12-16T12:30:25.587Z,-2.46
2022-12-16T12:33:22.838Z,-2.40
2022-12-16T12:36:46.215Z,-2.50
2022-12-16T12:40:16.710Z,-2.47
2022-12-16T12:43:08.290Z,-2.52
2022-12-16T12:46:04.046Z,-2.57
2022-12-16T12:49:32.905Z,-2.54
2022-12-16T12:52:36.871Z,-2.51
2022-12-16T12:56:02.014Z,-2.31
2022-12-16T12:58:49.636Z,-2.29
2022-12-16T13:01:40.170Z,-2.31
2022-12-16T13:04:32.322Z,-2.34
2022-12-16T13:07:21.549Z,-2.37
2022-12-16T13:10:26.805Z,-2.40
2022-12-16T13:13:35.480Z,-2.41
2022-12-16T13:16:23.123Z,-2.22
2022-12-16T13:19:47.165Z,-1.96
2022-12-16T13:23:05.469Z,-1.66
2022-12-16T13:25:59.561Z,-1.68
2022-12-16T13:28:51.652Z,-1.46
2022-12-16T13:31:38.058Z,-1.24
2022-12-16T13:34:42.765Z,-0.94
2022-12-16T13:37:42.618Z,-0.87
2022-12-16T13:40:38.670Z,-0.25
2022-12-16T13:43:24.259Z,-0.06
2022-12-16T13:46:18.496Z,-0.03
2022-12-16T13:49:03.760Z,-0.18
2022-12-16T13:51:55.320Z,-0.14
2022-12-16T13:55:05.531Z,-0.40
2022-12-16T13:57:58.261Z,-0.16
2022-12-16T14:00:57.243Z,-0.09
2022-12-16T14:03:58.893Z,0.11
2022-12-16T14:06:46.340Z,-0.47
2022-12-16T14:09:59.857Z,-0.46
2022-12-16T14:13:04.338Z,-0.42
2022-12-16T14:16:31.301Z,-0.58
2022-12-16T14:19:41.522Z,-0.42
2022-12-16T14:22:42.104Z,-0.68
2022-12-16T14:25:37.912Z,-0.74
2022-12-16T14:28:50.524Z,-0.72
2022-12-16T14:31:52.681Z,-0.71
2022-12-16T14:34:48.591Z,-0.71
2022-12-16T14:37:56.734Z,-0.78
2022-12-16T14:40:47.503Z,-0.96
2022-12-16T14:43:35.218Z,-0.81
2022-12-16T14:46:20.707Z,-0.88
2022-12-16T14:49:07.818Z,-1.00
2022-12-16T14:51:57.384Z,-1.08
2022-12-16T14:54:42.496Z,-1.13
2022-12-16T14:57:39.908Z,-1.18
2022-12-16T15:00:27.887Z,-1.29
2022-12-16T15:03:17.814Z,-1.51
2022-12-16T15:06:04.435Z,-1.42
2022-12-16T15:08:53.720Z,-1.45
2022-12-16T15:11:40.129Z,-1.61
2022-12-16T15:14:29.270Z,-1.67
2022-12-16T15:17:15.828Z,-1.66
2022-12-16T15:20:10.151Z,-1.64
2022-12-16T15:22:55.879Z,-1.93
2022-12-16T15:25:45.801Z,-1.91
2022-12-16T15:29:16.604Z,-1.97
2022-12-16T15:32:03.675Z,-2.02
2022-12-16T15:35:05.477Z,-2.06
2022-12-16T15:38:04.282Z,-2.34
2022-12-16T15:40:51.473Z,-2.34
2022-12-16T15:43:47.033Z,-2.26
2022-12-16T15:46:42.199Z,-2.35
2022-12-16T15:49:50.422Z,-2.34
2022-12-16T15:53:02.972Z,-2.37
2022-12-16T15:56:04.192Z,-2.41
2022-12-16T15:58:55.532Z,-2.43
2022-12-16T16:01:44.263Z,-2.47
2022-12-16T16:04:43.508Z,-2.49
2022-12-16T16:07:34.439Z,-2.54
2022-12-16T16:10:39.734Z,-2.62
2022-12-16T16:13:25.077Z,-2.65
2022-12-16T16:16:11.306Z,-2.67
2022-12-16T16:18:57.019Z,-2.73
2022-12-16T16:21:42.332Z,-2.78
2022-12-16T16:24:28.043Z,-2.81
2022-12-16T16:27:13.912Z,-2.82
2022-12-16T16:29:59.548Z,-2.82
2022-12-16T16:32:45.480Z,-2.82
2022-12-16T16:35:48.970Z,-2.83
2022-12-16T16:38:34.616Z,-2.86
2022-12-16T16:41:20.151Z,-2.87
2022-12-16T16:44:07.379Z,-2.89
2022-12-16T16:46:57.466Z,-2.85
2022-12-16T16:49:48.075Z,-2.88
2022-12-16T16:52:36.034Z,-2.88
2022-12-16T16:55:21.777Z,-2.92
2022-12-16T16:58:07.511Z,-2.92
2022-12-16T17:00:53.778Z,-2.93
2022-12-16T17:03:39.810Z,-2.97
2022-12-16T17:06:25.854Z,-2.97
2022-12-16T17:09:11.437Z,-2.98
2022-12-16T17:11:57.060Z,-2.96
2022-12-16T17:14:42.641Z,-2.96
2022-12-16T17:17:28.764Z,-2.98
2022-12-16T17:20:14.246Z,-3.01
2022-12-16T17:22:59.975Z,-3.01
2022-12-16T17:25:45.152Z,-3.03
2022-12-16T17:28:30.992Z,-3.03
2022-12-16T17:31:17.172Z,-3.03
2022-12-16T17:34:02.649Z,-3.00
2022-12-16T17:36:47.980Z,-3.04
2022-12-16T17:39:33.176Z,-3.01
2022-12-16T17:42:18.859Z,-2.99
2022-12-16T17:45:04.365Z,-3.03
2022-12-16T17:47:50.015Z,-3.04
2022-12-16T17:50:35.281Z,-3.05
2022-12-16T17:53:20.455Z,-3.06
2022-12-16T17:56:05.730Z,-3.07
2022-12-16T17:58:55.757Z,-3.09
2022-12-16T18:01:41.716Z,-3.08
2022-12-16T18:04:27.435Z,-3.07
2022-12-16T18:07:13.311Z,-3.08
2022-12-16T18:09:58.602Z,-3.06
2022-12-16T18:12:44.109Z,-3.07
2022-12-16T18:15:29.481Z,-3.03
2022-12-16T18:18:14.638Z,-3.06
2022-12-16T18:20:59.693Z,-3.08
2022-12-16T18:23:48.294Z,-3.13
2022-12-16T18:26:34.049Z,-3.16
2022-12-16T18:29:19.062Z,-3.17
2022-12-16T18:32:07.221Z,-3.13
2022-12-16T18:34:52.359Z,-3.11
2022-12-16T18:37:37.583Z,-3.08
2022-12-16T18:40:23.493Z,-3.09
2022-12-16T18:43:08.599Z,-3.11
2022-12-16T18:45:53.606Z,-3.11
2022-12-16T18:48:38.788Z,-3.15
2022-12-16T18:51:23.860Z,-3.15
2022-12-16T18:54:09.752Z,-3.14
2022-12-16T18:56:55.326Z,-3.13
2022-12-16T18:59:40.616Z,-3.13
2022-12-16T19:02:27.559Z,-3.13
2022-12-16T19:05:13.073Z,-3.13
2022-12-16T19:07:58.429Z,-3.15
2022-12-16T19:10:43.889Z,-3.15
2022-12-16T19:13:35.411Z,-3.17
2022-12-16T19:16:21.590Z,-3.18
2022-12-16T19:19:06.854Z,-3.19
2022-12-16T19:21:56.855Z,-3.23
2022-12-16T19:24:43.150Z,-3.24
2022-12-16T19:27:28.577Z,-3.30
2022-12-16T19:30:13.649Z,-3.33
2022-12-16T19:32:59.120Z,-3.31
2022-12-16T19:35:44.837Z,-3.29
2022-12-16T19:38:33.503Z,-3.30
2022-12-16T19:41:18.651Z,-3.33
2022-12-16T19:44:06.340Z,-3.33
2022-12-16T19:46:56.112Z,-3.33
2022-12-16T19:49:44.466Z,-3.31
2022-12-16T19:52:47.355Z,-3.32
2022-12-16T19:55:40.413Z,-3.29
2022-12-16T19:58:25.670Z,-3.27
2022-12-16T20:01:10.977Z,-3.29
2022-12-16T20:03:56.964Z,-3.32
2022-12-16T20:06:42.774Z,-3.33
2022-12-16T20:09:28.305Z,-3.32
2022-12-16T20:12:13.560Z,-3.29
2022-12-16T20:14:59.001Z,-3.31
2022-12-16T20:17:44.280Z,-3.37
2022-12-16T20:20:29.544Z,-3.35
2022-12-16T20:23:15.106Z,-3.33
2022-12-16T20:26:00.251Z,-3.32
2022-12-16T20:28:45.855Z,-3.32
2022-12-16T20:31:31.176Z,-3.33
2022-12-16T20:34:17.020Z,-3.30
2022-12-16T20:37:02.493Z,-3.30
2022-12-16T20:39:56.426Z,-3.31
2022-12-16T20:42:41.827Z,-3.32
2022-12-16T20:45:27.533Z,-3.32
2022-12-16T20:48:12.959Z,-3.28
2022-12-16T20:50:58.078Z,-3.26
2022-12-16T20:53:44.169Z,-3.26
2022-12-16T20:56:29.690Z,-3.25
2022-12-16T20:59:15.043Z,-3.22
2022-12-16T21:02:22.655Z,-3.23
2022-12-16T21:05:05.856Z,-3.26
2022-12-16T21:07:53.315Z,-3.23
2022-12-16T21:10:38.855Z,-3.27
2022-12-16T21:13:32.701Z,-3.30
2022-12-16T21:16:20.273Z,-3.26
2022-12-16T21:19:05.370Z,-3.26
2022-12-16T21:21:50.919Z,-3.31
2022-12-16T21:24:37.099Z,-3.31
2022-12-16T21:27:22.770Z,-3.34
2022-12-16T21:30:07.905Z,-3.35
2022-12-16T21:32:53.422Z,-3.34
2022-12-16T21:35:38.990Z,-3.34
2022-12-16T21:38:31.068Z,-3.38
2022-12-16T21:41:16.285Z,-3.38
2022-12-16T21:44:01.561Z,-3.40
2022-12-16T21:46:46.911Z,-3.39
2022-12-16T21:49:31.824Z,-3.37
2022-12-16T21:52:17.155Z,-3.31
2022-12-16T21:55:02.247Z,-3.33
2022-12-16T21:57:47.464Z,-3.34
2022-12-16T22:00:32.989Z,-3.42
2022-12-16T22:03:18.113Z,-3.43
2022-12-16T22:06:04.028Z,-3.40
2022-12-16T22:08:49.450Z,-3.41
2022-12-16T22:11:36.414Z,-3.41
2022-12-16T22:14:21.895Z,-3.42
2022-12-16T22:17:07.155Z,-3.42
2022-12-16T22:19:52.603Z,-3.48
2022-12-16T22:22:37.970Z,-3.43
2022-12-16T22:25:24.169Z,-3.50
2022-12-16T22:28:09.439Z,-3.49
2022-12-16T22:34:00.417Z,-3.50
2022-12-16T22:36:45.548Z,-3.47
2022-12-16T22:39:30.977Z,-3.47
2022-12-16T22:42:15.840Z,-3.50
2022-12-16T22:45:00.793Z,-3.52
2022-12-16T22:47:46.270Z,-3.54
2022-12-16T22:50:31.435Z,-3.56
2022-12-16T22:53:16.697Z,-3.60
2022-12-16T22:56:02.431Z,-3.61
2022-12-16T22:58:47.427Z,-3.56
2022-12-16T23:01:32.782Z,-3.54
2022-12-16T23:04:17.967Z,-3.53
2022-12-16T23:07:03.291Z,-3.58
2022-12-16T23:09:48.454Z,-3.54
2022-12-16T23:12:33.948Z,-3.51
2022-12-16T23:15:19.072Z,-3.52
2022-12-16T23:18:04.499Z,-3.54
2022-12-16T23:20:49.422Z,-3.58
2022-12-16T23:23:34.479Z,-3.53
2022-12-16T23:26:20.864Z,-3.57
2022-12-16T23:29:11.122Z,-3.56
2022-12-16T23:31:57.327Z,-3.65
2022-12-16T23:34:46.129Z,-3.66
2022-12-16T23:37:31.937Z,-3.60
2022-12-16T23:40:17.056Z,-3.59
2022-12-16T23:43:02.423Z,-3.64
2022-12-16T23:45:47.686Z,-3.66
2022-12-16T23:48:32.815Z,-3.61
2022-12-16T23:51:18.242Z,-3.67
2022-12-16T23:54:03.622Z,-3.60
2022-12-16T23:56:49.167Z,-3.67
2022-12-16T23:59:34.374Z,-3.72
